EPSC

Szczecin-Goleniów "Solidarność" Airport

Goleniow, Poland
METAR EPSC 201600Z 29009KT 9999 FEW030 23/16 Q1015
Observed Flight Rules
Aug-20 @ 16:00 UTC (24 minutes ago) Visual Flight Rules
Wind Visibility Clouds
290° at 9 knots 10,000+ meters
  • Few at 3,000' AGL
Temperatures Readings
Current 23°C / 73°F
Dewpoint 16°C / 61°F
Humidity 65%
Altimeter 29.97" Hg
Pressure 1015 hPa
Elevation 47
METAR EPSC 201600Z 29009KT 9999 FEW030 23/16 Q1015
Observed Flight Rules
Aug-20 @ 16:00 UTC
(24 minutes ago)
VFR
Wind Visibility
290° at 9 knots 10,000+ meters
Clouds
  • Few at 3,000' AGL
Temperature Dewpoint
23°C / 73°F 16°C / 61°F
Humidity Altimeter Pressure
65% 29.97" Hg 1015 hPa